Time;durP1;ratioP1;P1;durP2;ratioP2;P2;SDS_P1;SDS_P2;PMS_P1;PMS_P2;Temp;Humidity;BMP_temperature;BMP_pressure;BME280_temperature;BME280_humidity;BME280_pressure;Samples;Min_cycle;Max_cycle;Signal;HPM_P1;HPM_P2
2021/09/27 00:02:07;;;;;;;;;;;;;;;20.73;75.13;101160.84;5032154;28;1763;-57
2021/09/27 00:04:33;;;;;;;;;;;;;;;20.72;75.07;101161.84;5037289;28;878;-57
2021/09/27 00:06:58;;;;;;;;;;;;;;;20.71;75.14;101162.84;5037627;28;1001;-57
2021/09/27 00:09:23;;;;;;;;;;;;;;;20.70;74.68;101156.59;5037014;28;1045;-55
2021/09/27 00:11:48;;;;;;;;;;;;;;;20.70;75.04;101164.72;5037579;28;890;-57
2021/09/27 00:14:13;;;;;;;;;;;;;;;20.69;74.66;101154.88;5037564;28;1044;-57
2021/09/27 00:16:38;;;;;;;;;;;;;;;20.69;75.22;101162.16;5031964;28;1541;-58
2021/09/27 00:19:03;;;;;;;;;;;;;;;20.69;74.73;101149.47;5036069;28;1012;-57
2021/09/27 00:21:28;;;;;;;;;;;;;;;20.68;75.19;101146.91;5036882;28;1977;-57
2021/09/27 00:23:53;;;;;;;;;;;;;;;20.68;74.66;101146.91;5037386;28;1063;-56
2021/09/27 00:26:18;;;;;;;;;;;;;;;20.67;75.04;101154.19;5034694;28;1634;-56
2021/09/27 00:28:43;;;;;;;;;;;;;;;20.67;75.00;101150.63;5015915;28;981;-57
2021/09/27 00:31:09;;;;;;;;;;;;;;;20.64;74.84;101148.22;5017237;28;1236;-54
2021/09/27 00:33:34;;;;;;;;;;;;;;;20.64;74.94;101143.66;5017300;28;1028;-56
2021/09/27 00:35:59;;;;;;;;;;;;;;;20.64;74.83;101135.53;5016323;28;1166;-56
2021/09/27 00:38:24;;;;;;;;;;;;;;;20.64;74.42;101131.97;5017288;28;1017;-55
2021/09/27 00:40:49;;;;;;;;;;;;;;;20.63;74.45;101136.53;5016978;28;1953;-56
2021/09/27 00:43:14;;;;;;;;;;;;;;;20.62;74.77;101125.88;5017208;28;792;-56
2021/09/27 00:45:39;;;;;;;;;;;;;;;20.61;74.65;101132.28;5017092;28;791;-54
2021/09/27 00:48:04;;;;;;;;;;;;;;;20.60;74.59;101122.50;5017197;28;1065;-56
2021/09/27 00:50:29;;;;;;;;;;;;;;;20.60;74.53;101117.06;5016798;28;1002;-56
2021/09/27 00:52:54;;;;;;;;;;;;;;;20.60;74.38;101114.38;5016753;28;1116;-56
2021/09/27 00:55:19;;;;;;;;;;;;;;;20.60;75.02;101119.78;5016932;28;815;-55
2021/09/27 00:57:44;;;;;;;;;;;;;;;20.59;74.68;101121.63;5030259;28;1765;-52
2021/09/27 01:00:10;;;;;;;;;;;;;;;20.59;74.32;101115.38;5036308;28;1890;-56
2021/09/27 01:02:35;;;;;;;;;;;;;;;20.57;74.48;101118.25;5036454;28;898;-55
2021/09/27 01:05:00;;;;;;;;;;;;;;;20.57;74.49;101118.25;5036213;28;1656;-54
2021/09/27 01:07:25;;;;;;;;;;;;;;;20.56;74.52;101108.41;5035748;28;1484;-56
2021/09/27 01:09:50;;;;;;;;;;;;;;;20.56;75.01;101112.97;5036189;28;1703;-57
2021/09/27 01:12:15;;;;;;;;;;;;;;;20.54;74.58;101107.72;5036490;28;997;-55
2021/09/27 01:14:40;;;;;;;;;;;;;;;20.55;74.87;101109.41;5036318;28;1060;-57
2021/09/27 01:17:05;;;;;;;;;;;;;;;20.54;74.45;101109.56;5034519;28;1693;-57
2021/09/27 01:19:30;;;;;;;;;;;;;;;20.54;74.17;101105.00;5034835;28;2033;-56
2021/09/27 01:21:55;;;;;;;;;;;;;;;20.54;74.80;101104.16;5034554;28;1629;-56
2021/09/27 01:24:20;;;;;;;;;;;;;;;20.53;74.32;101099.75;5035846;28;869;-56
2021/09/27 01:26:45;;;;;;;;;;;;;;;20.53;74.64;101097.88;5036206;28;1032;-57
2021/09/27 01:29:11;;;;;;;;;;;;;;;20.52;74.26;101098.03;5035881;28;938;-56
2021/09/27 01:31:36;;;;;;;;;;;;;;;20.53;75.00;101099.75;5036058;28;1212;-57
2021/09/27 01:34:01;;;;;;;;;;;;;;;20.52;74.63;101093.47;5035980;28;997;-57
2021/09/27 01:36:26;;;;;;;;;;;;;;;20.52;74.55;101108.88;5035580;28;985;-58
2021/09/27 01:38:51;;;;;;;;;;;;;;;20.50;74.41;101095.50;5035925;28;1048;-57
2021/09/27 01:41:16;;;;;;;;;;;;;;;20.50;74.93;101100.91;5035671;28;1898;-56
2021/09/27 01:43:41;;;;;;;;;;;;;;;20.51;74.81;101099.06;5035694;28;916;-54
2021/09/27 01:46:06;;;;;;;;;;;;;;;20.49;74.21;101109.19;5026962;28;1713;-55
2021/09/27 01:48:32;;;;;;;;;;;;;;;20.50;74.45;101094.63;5015572;28;898;-56
2021/09/27 01:50:57;;;;;;;;;;;;;;;20.49;74.35;101103.78;5016161;28;768;-55
2021/09/27 01:53:22;;;;;;;;;;;;;;;20.48;74.71;101104.78;5015794;28;1068;-56
2021/09/27 01:55:47;;;;;;;;;;;;;;;20.47;74.55;101092.25;5015954;28;800;-57
2021/09/27 01:58:12;;;;;;;;;;;;;;;20.47;74.71;101095.81;5015693;28;1024;-56
2021/09/27 02:00:37;;;;;;;;;;;;;;;20.46;74.23;101085.97;5015551;28;1969;-54
2021/09/27 02:03:02;;;;;;;;;;;;;;;20.46;74.32;101088.69;5021144;28;1583;-55
2021/09/27 02:05:28;;;;;;;;;;;;;;;20.45;74.24;101087.84;5025431;28;1682;-57
2021/09/27 02:07:53;;;;;;;;;;;;;;;20.45;74.22;101097.81;5015287;28;807;-57
2021/09/27 02:10:18;;;;;;;;;;;;;;;20.44;74.54;101093.41;5015489;28;827;-57
2021/09/27 02:12:43;;;;;;;;;;;;;;;20.44;74.54;101093.41;5015503;28;1048;-57
2021/09/27 02:15:08;;;;;;;;;;;;;;;20.43;74.04;101094.41;5015563;28;1029;-57
2021/09/27 02:17:33;;;;;;;;;;;;;;;20.43;74.17;101080.88;5015276;28;874;-57
2021/09/27 02:19:58;;;;;;;;;;;;;;;20.42;74.87;101092.75;5015297;28;1981;-57
2021/09/27 02:22:23;;;;;;;;;;;;;;;20.42;74.55;101082.72;5015187;28;842;-57
2021/09/27 02:24:48;;;;;;;;;;;;;;;20.42;74.26;101090.03;5015209;28;1009;-57
2021/09/27 02:27:13;;;;;;;;;;;;;;;20.41;73.78;101097.31;5015613;28;1016;-57
2021/09/27 02:29:38;;;;;;;;;;;;;;;20.40;74.38;101094.75;5015077;28;827;-57
2021/09/27 02:32:03;;;;;;;;;;;;;;;20.40;74.16;101090.19;5015222;28;1013;-57
2021/09/27 02:34:28;;;;;;;;;;;;;;;20.40;74.14;101083.91;5016329;28;1659;-58
2021/09/27 02:36:54;;;;;;;;;;;;;;;20.39;73.86;101084.94;5034703;28;1719;-58
2021/09/27 02:39:19;;;;;;;;;;;;;;;20.39;74.33;101091.19;5034665;28;1329;-57
2021/09/27 02:41:44;;;;;;;;;;;;;;;20.36;74.19;101086.09;5034409;28;1957;-57
2021/09/27 02:44:09;;;;;;;;;;;;;;;20.38;74.40;101086.78;5034934;28;954;-57
2021/09/27 02:46:41;;;;;;;;;;;;;;;20.38;73.99;101089.50;5034923;28;1235;-57
2021/09/27 02:49:11;;;;;;;;;;;;;;;20.36;74.11;101077.97;5034765;28;768;-57
2021/09/27 02:51:36;;;;;;;;;;;;;;;20.36;73.75;101072.56;5034488;28;827;-59
2021/09/27 02:54:01;;;;;;;;;;;;;;;20.35;73.87;101069.97;5034615;28;902;-57
2021/09/27 02:56:26;;;;;;;;;;;;;;;20.34;73.74;101093.47;5034816;28;910;-58
2021/09/27 02:58:51;;;;;;;;;;;;;;;20.35;73.66;101083.50;5034478;28;972;-58
2021/09/27 03:01:16;;;;;;;;;;;;;;;20.33;73.76;101078.25;5038049;28;1956;-58
2021/09/27 03:03:41;;;;;;;;;;;;;;;20.34;74.08;101089.91;5025599;28;1621;-58
2021/09/27 03:06:06;;;;;;;;;;;;;;;20.34;74.19;101079.09;5018708;28;1010;-58
2021/09/27 03:08:31;;;;;;;;;;;;;;;20.32;74.22;101071.13;5017508;28;902;-58
2021/09/27 03:10:56;;;;;;;;;;;;;;;20.31;74.08;101080.25;5019344;28;986;-57
2021/09/27 03:13:21;;;;;;;;;;;;;;;20.32;74.35;101070.28;5018727;28;926;-57
2021/09/27 03:15:46;;;;;;;;;;;;;;;20.30;73.56;101073.13;5017179;28;1371;-58
2021/09/27 03:18:12;;;;;;;;;;;;;;;20.30;73.67;101078.56;5018648;28;1057;-57
2021/09/27 03:20:37;;;;;;;;;;;;;;;20.31;73.55;101082.09;5018730;28;1907;-57
2021/09/27 03:23:02;;;;;;;;;;;;;;;20.30;73.70;101080.41;5019212;28;827;-56
2021/09/27 03:25:27;;;;;;;;;;;;;;;20.29;74.04;101076.84;5018696;28;1061;-56
2021/09/27 03:27:52;;;;;;;;;;;;;;;20.29;73.80;101071.44;5018520;28;772;-57
2021/09/27 03:30:17;;;;;;;;;;;;;;;20.27;73.86;101078.84;5018436;28;994;-56
2021/09/27 03:32:42;;;;;;;;;;;;;;;20.28;74.47;101079.72;5023130;28;1571;-57
2021/09/27 03:35:07;;;;;;;;;;;;;;;20.28;73.96;101079.72;5038357;28;1005;-57
2021/09/27 03:37:32;;;;;;;;;;;;;;;20.29;73.78;101076.84;5038623;28;997;-56
2021/09/27 03:39:57;;;;;;;;;;;;;;;20.28;73.45;101068.88;5037895;28;1958;-57
2021/09/27 03:42:22;;;;;;;;;;;;;;;20.26;74.18;101062.78;5038102;28;989;-57
2021/09/27 03:44:48;;;;;;;;;;;;;;;20.26;73.46;101070.91;5038144;28;1009;-57
2021/09/27 03:47:13;;;;;;;;;;;;;;;20.25;73.86;101059.22;5037883;28;803;-56
2021/09/27 03:49:38;;;;;;;;;;;;;;;20.26;73.79;101063.63;5037878;28;847;-57
2021/09/27 03:52:03;;;;;;;;;;;;;;;20.25;74.24;101064.63;5036098;28;1698;-58
2021/09/27 03:54:28;;;;;;;;;;;;;;;20.25;74.20;101064.63;5018140;28;1183;-57
2021/09/27 03:56:53;;;;;;;;;;;;;;;20.24;74.31;101056.69;5018001;28;1563;-57
2021/09/27 03:59:18;;;;;;;;;;;;;;;20.24;74.16;101064.81;5017795;28;1053;-57
2021/09/27 04:01:43;;;;;;;;;;;;;;;20.22;73.93;101059.56;5017965;28;1891;-57
2021/09/27 04:04:08;;;;;;;;;;;;;;;20.23;73.36;101050.44;5017760;28;998;-57
2021/09/27 04:06:33;;;;;;;;;;;;;;;20.22;73.64;101054.16;5017308;28;1056;-57
2021/09/27 04:08:58;;;;;;;;;;;;;;;20.22;74.28;101056.00;5017718;28;818;-57
2021/09/27 04:11:24;;;;;;;;;;;;;;;20.21;73.90;101048.88;5017707;28;827;-57
2021/09/27 04:13:49;;;;;;;;;;;;;;;20.21;74.18;101060.56;5035540;28;1715;-58
2021/09/27 04:16:14;;;;;;;;;;;;;;;20.20;73.68;101056.16;5037533;28;996;-57
2021/09/27 04:18:39;;;;;;;;;;;;;;;20.21;73.83;101051.59;5037406;28;945;-57
2021/09/27 04:21:04;;;;;;;;;;;;;;;20.19;73.62;101046.34;5037246;28;1918;-57
2021/09/27 04:23:29;;;;;;;;;;;;;;;20.20;73.74;101050.75;5037152;28;898;-58
2021/09/27 04:25:54;;;;;;;;;;;;;;;20.20;73.58;101045.34;5037566;28;977;-57
2021/09/27 04:28:19;;;;;;;;;;;;;;;20.18;73.47;101047.34;5037178;28;997;-58
2021/09/27 04:30:44;;;;;;;;;;;;;;;20.18;74.07;101052.75;5037043;28;1001;-59
2021/09/27 04:33:09;;;;;;;;;;;;;;;20.18;74.03;101046.50;5022404;28;1594;-57
2021/09/27 04:35:34;;;;;;;;;;;;;;;20.17;74.09;101045.63;5017210;28;866;-57
2021/09/27 04:38:00;;;;;;;;;;;;;;;20.18;73.31;101041.94;5017057;28;903;-56
2021/09/27 04:40:25;;;;;;;;;;;;;;;20.16;74.17;101041.22;5016671;28;1955;-57
2021/09/27 04:42:55;;;;;;;;;;;;;;;20.16;73.41;101035.81;5017353;28;997;-56
2021/09/27 04:45:20;;;;;;;;;;;;;;;20.16;73.76;101040.38;5035626;28;1285;-57
2021/09/27 04:47:45;;;;;;;;;;;;;;;20.15;73.23;101050.34;5036318;28;1468;-57
2021/09/27 04:50:10;;;;;;;;;;;;;;;20.14;73.97;101040.53;5036208;28;1479;-54
2021/09/27 04:52:35;;;;;;;;;;;;;;;20.15;73.69;101034.13;5035797;28;1305;-55
2021/09/27 04:55:02;;;;;;;;;;;;;;;20.14;73.50;101034.28;5036241;28;1379;-56
2021/09/27 04:57:28;;;;;;;;;;;;;;;20.15;73.41;101031.41;5036627;28;1546;-56
2021/09/27 04:59:53;;;;;;;;;;;;;;;20.14;73.52;101023.44;5028314;28;1963;-54
2021/09/27 05:02:18;;;;;;;;;;;;;;;20.16;74.53;101029.56;5035361;28;1647;-55
2021/09/27 05:04:44;;;;;;;;;;;;;;;20.19;74.15;101031.97;5034726;28;1691;-56
2021/09/27 05:07:09;;;;;;;;;;;;;;;20.20;74.14;101029.09;5035728;28;1344;-51
2021/09/27 05:09:34;;;;;;;;;;;;;;;20.21;73.95;101024.53;5036508;28;832;-54
2021/09/27 05:12:00;;;;;;;;;;;;;;;20.19;74.37;101027.38;5033085;28;1204;-51
2021/09/27 05:14:25;;;;;;;;;;;;;;;20.18;74.11;101020.28;5036472;28;874;-52
2021/09/27 05:16:50;;;;;;;;;;;;;;;20.18;74.17;101019.44;5036408;28;1408;-51
2021/09/27 05:19:15;;;;;;;;;;;;;;;20.17;74.24;101017.72;5036134;28;1762;-50
2021/09/27 05:21:40;;;;;;;;;;;;;;;20.17;74.18;101007.75;5021796;28;1969;-53
2021/09/27 05:24:05;;;;;;;;;;;;;;;20.17;75.08;101007.75;5015953;28;1590;-51
2021/09/27 05:26:30;;;;;;;;;;;;;;;20.17;75.00;100998.78;5024407;28;1368;-53
2021/09/27 05:28:55;;;;;;;;;;;;;;;20.18;74.45;101008.59;5023878;28;1418;-53
2021/09/27 05:31:20;;;;;;;;;;;;;;;20.15;74.68;101009.75;5026339;28;1454;-53
2021/09/27 05:33:46;;;;;;;;;;;;;;;20.15;74.61;100998.94;5025956;28;1414;-50
2021/09/27 05:36:12;;;;;;;;;;;;;;;20.15;74.15;100998.09;5028598;28;1306;-53
2021/09/27 05:38:37;;;;;;;;;;;;;;;20.15;74.15;100992.69;5026803;28;1384;-52
2021/09/27 05:41:02;;;;;;;;;;;;;;;20.15;74.21;101001.66;5027152;28;1894;-52
2021/09/27 05:43:28;;;;;;;;;;;;;;;20.15;74.15;100998.09;5025538;28;1239;-52
2021/09/27 05:45:53;;;;;;;;;;;;;;;20.14;74.22;100991.81;5026148;28;1406;-52
2021/09/27 05:48:18;;;;;;;;;;;;;;;20.13;74.86;100995.53;5027239;28;1349;-53
2021/09/27 05:50:43;;;;;;;;;;;;;;;20.14;73.95;100999.09;5030372;28;1604;-50
2021/09/27 05:53:08;;;;;;;;;;;;;;;20.13;74.77;101000.94;5024028;28;1521;-54
2021/09/27 05:55:34;;;;;;;;;;;;;;;20.11;74.03;100993.00;5028582;28;1319;-51
2021/09/27 05:57:59;;;;;;;;;;;;;;;20.13;74.13;101000.09;5023817;28;1708;-53
2021/09/27 06:00:24;;;;;;;;;;;;;;;20.12;74.54;100999.25;5028695;28;1974;-54
2021/09/27 06:02:49;;;;;;;;;;;;;;;20.13;74.19;101000.09;5023950;28;1670;-51
2021/09/27 06:05:14;;;;;;;;;;;;;;;20.11;74.25;100995.69;5020445;28;1834;-52
2021/09/27 06:07:40;;;;;;;;;;;;;;;20.10;74.80;100994.00;5015826;28;985;-54
2021/09/27 06:10:05;;;;;;;;;;;;;;;20.11;74.25;101002.97;5017926;28;1767;-58
2021/09/27 06:12:30;;;;;;;;;;;;;;;20.10;74.66;101002.09;5035269;28;1669;-55
2021/09/27 06:14:55;;;;;;;;;;;;;;;20.09;74.64;101007.69;5035858;28;854;-52
2021/09/27 06:17:20;;;;;;;;;;;;;;;20.07;74.28;100997.00;5035785;28;958;-53
2021/09/27 06:19:45;;;;;;;;;;;;;;;20.09;74.57;100997.69;5035488;28;1891;-55
2021/09/27 06:22:10;;;;;;;;;;;;;;;20.10;74.51;101002.09;5035058;28;811;-54
2021/09/27 06:24:35;;;;;;;;;;;;;;;20.10;73.83;101007.53;5035044;28;1392;-55
2021/09/27 06:27:01;;;;;;;;;;;;;;;20.10;74.06;101002.09;5035140;28;1065;-53
2021/09/27 06:29:26;;;;;;;;;;;;;;;20.12;73.92;100988.44;5034895;28;1041;-55
2021/09/27 06:31:51;;;;;;;;;;;;;;;20.12;73.93;100988.44;5016365;28;1767;-54
2021/09/27 06:34:16;;;;;;;;;;;;;;;20.15;73.83;100988.13;5014670;28;998;-55
2021/09/27 06:36:42;;;;;;;;;;;;;;;20.17;73.65;100985.25;5015554;28;1001;-55
2021/09/27 06:39:07;;;;;;;;;;;;;;;20.16;73.31;100979.00;5017951;28;1578;-53
2021/09/27 06:41:32;;;;;;;;;;;;;;;20.20;73.30;100969.56;5015387;28;1949;-51
2021/09/27 06:43:57;;;;;;;;;;;;;;;20.22;73.21;100966.69;5015277;28;1013;-55
2021/09/27 06:46:22;;;;;;;;;;;;;;;20.24;73.37;100970.09;5015040;28;890;-55
2021/09/27 06:48:47;;;;;;;;;;;;;;;20.23;73.28;100968.41;5015038;28;891;-54
2021/09/27 06:51:13;;;;;;;;;;;;;;;20.22;73.61;100967.53;5015004;28;1073;-55
2021/09/27 06:53:38;;;;;;;;;;;;;;;20.22;73.46;100982.94;5014782;28;894;-55
2021/09/27 06:56:03;;;;;;;;;;;;;;;20.23;73.07;100971.94;5015047;28;891;-55
2021/09/27 06:58:28;;;;;;;;;;;;;;;20.23;73.70;100974.66;5015098;28;855;-55
2021/09/27 07:00:53;;;;;;;;;;;;;;;20.27;72.89;100972.47;5027476;28;1987;-54
2021/09/27 07:03:18;;;;;;;;;;;;;;;20.33;73.01;100971.81;5033114;28;1622;-52
2021/09/27 07:05:43;;;;;;;;;;;;;;;20.39;72.95;100976.66;5027362;28;1720;-54
2021/09/27 07:08:08;;;;;;;;;;;;;;;20.40;73.12;100972.94;5014551;28;1018;-52
2021/09/27 07:10:33;;;;;;;;;;;;;;;20.37;73.09;100970.53;5014819;28;855;-55
2021/09/27 07:12:58;;;;;;;;;;;;;;;20.34;73.21;100966.25;5014722;28;998;-55
2021/09/27 07:15:24;;;;;;;;;;;;;;;20.33;73.62;100963.72;5014977;28;1014;-55
2021/09/27 07:17:49;;;;;;;;;;;;;;;20.29;73.25;100957.75;5014680;28;812;-54
2021/09/27 07:20:14;;;;;;;;;;;;;;;20.28;73.35;100956.06;5014572;28;1967;-53
2021/09/27 07:22:39;;;;;;;;;;;;;;;20.27;73.21;100954.34;5014782;28;813;-52
2021/09/27 07:25:05;;;;;;;;;;;;;;;20.26;73.46;100947.25;5014626;28;801;-54
2021/09/27 07:27:30;;;;;;;;;;;;;;;20.24;73.34;100935.75;5014492;28;909;-54
2021/09/27 07:29:55;;;;;;;;;;;;;;;20.24;73.76;100938.47;5018932;28;1666;-54
2021/09/27 07:32:20;;;;;;;;;;;;;;;20.26;73.55;100938.28;5034158;28;816;-56
2021/09/27 07:34:45;;;;;;;;;;;;;;;20.25;73.19;100929.31;5034386;28;1002;-55
2021/09/27 07:37:10;;;;;;;;;;;;;;;20.26;73.11;100928.31;5034305;28;998;-54
2021/09/27 07:39:35;;;;;;;;;;;;;;;20.24;73.29;100922.22;5034199;28;828;-53
2021/09/27 07:42:00;;;;;;;;;;;;;;;20.26;73.25;100928.31;5034208;28;1875;-54
2021/09/27 07:44:26;;;;;;;;;;;;;;;20.29;73.00;100927.13;5034062;28;933;-54
2021/09/27 07:46:51;;;;;;;;;;;;;;;20.32;72.66;100934.94;5037046;28;922;-55
2021/09/27 07:49:16;;;;;;;;;;;;;;;20.31;72.63;100917.00;5037813;28;808;-54
2021/09/27 07:51:41;;;;;;;;;;;;;;;20.36;73.12;100928.22;5037830;28;1017;-54
2021/09/27 07:54:06;;;;;;;;;;;;;;;20.36;72.18;100929.09;5037751;28;771;-54
2021/09/27 07:56:31;;;;;;;;;;;;;;;20.36;72.52;100937.22;5037729;28;1005;-55
2021/09/27 07:58:56;;;;;;;;;;;;;;;20.33;72.43;100932.06;5037804;28;831;-52
2021/09/27 08:01:21;;;;;;;;;;;;;;;20.31;73.16;100922.41;5018600;28;1998;-54
2021/09/27 08:03:46;;;;;;;;;;;;;;;20.30;72.65;100931.53;5017863;28;1670;-55
2021/09/27 08:06:12;;;;;;;;;;;;;;;20.33;72.85;100926.66;5018058;28;994;-55
2021/09/27 08:08:37;;;;;;;;;;;;;;;20.32;72.59;100930.38;5017579;28;910;-53
2021/09/27 08:11:02;;;;;;;;;;;;;;;20.34;73.05;100928.38;5017867;28;855;-54
2021/09/27 08:13:27;;;;;;;;;;;;;;;20.34;72.58;100920.25;5017767;28;820;-52
2021/09/27 08:15:52;;;;;;;;;;;;;;;20.34;72.70;100920.25;5017735;28;986;-53
2021/09/27 08:18:17;;;;;;;;;;;;;;;20.37;72.37;100922.66;5017695;28;875;-55
2021/09/27 08:20:42;;;;;;;;;;;;;;;20.42;72.14;100924.91;5017317;28;1961;-54
2021/09/27 08:23:07;;;;;;;;;;;;;;;20.44;72.28;100929.13;5017449;28;1033;-54
2021/09/27 08:25:32;;;;;;;;;;;;;;;20.44;72.67;100931.81;5017417;28;804;-55
2021/09/27 08:27:59;;;;;;;;;;;;;;;20.44;72.10;100922.84;5017240;28;1030;-55
2021/09/27 08:30:24;;;;;;;;;;;;;;;20.42;72.05;100914.88;5028011;28;1448;-54
2021/09/27 08:32:50;;;;;;;;;;;;;;;20.44;72.14;100907.47;5036171;28;1628;-54
2021/09/27 08:35:15;;;;;;;;;;;;;;;20.48;72.06;100896.31;5037047;28;831;-55
2021/09/27 08:37:40;;;;;;;;;;;;;;;20.52;72.63;100893.13;5037135;28;788;-55
2021/09/27 08:40:05;;;;;;;;;;;;;;;20.53;72.12;100878.56;5036789;28;1890;-53
2021/09/27 08:42:30;;;;;;;;;;;;;;;20.55;72.14;100891.97;5037142;28;1060;-54
2021/09/27 08:44:55;;;;;;;;;;;;;;;20.56;72.67;100899.06;5037085;28;914;-54
2021/09/27 08:47:20;;;;;;;;;;;;;;;20.52;72.24;100893.13;5036795;28;772;-55
2021/09/27 08:49:45;;;;;;;;;;;;;;;20.48;71.97;100889.03;5036831;28;898;-53
2021/09/27 08:52:11;;;;;;;;;;;;;;;20.46;72.26;100885.66;5036699;28;993;-55
2021/09/27 08:54:36;;;;;;;;;;;;;;;20.44;71.90;100890.38;5036693;28;812;-53
2021/09/27 08:57:01;;;;;;;;;;;;;;;20.43;71.84;100888.66;5036152;28;902;-55
2021/09/27 08:59:27;;;;;;;;;;;;;;;20.42;72.05;100877.00;5030515;28;1690;-54
2021/09/27 09:01:52;;;;;;;;;;;;;;;20.41;71.64;100886.16;5016653;28;1991;-55
2021/09/27 09:04:18;;;;;;;;;;;;;;;20.40;72.11;100886.31;5017027;28;989;-54
2021/09/27 09:06:45;;;;;;;;;;;;;;;20.39;72.03;100888.16;5016819;28;819;-54
2021/09/27 09:09:10;;;;;;;;;;;;;;;20.40;72.31;100887.16;5016617;28;740;-53
2021/09/27 09:11:35;;;;;;;;;;;;;;;20.39;72.62;100890.88;5016923;28;1034;-52
2021/09/27 09:14:00;;;;;;;;;;;;;;;20.41;72.21;100893.44;5016765;28;807;-51
2021/09/27 09:16:25;;;;;;;;;;;;;;;20.40;72.15;100876.34;5016892;28;998;-51
2021/09/27 09:18:50;;;;;;;;;;;;;;;20.41;72.02;100883.44;5016725;28;993;-49
2021/09/27 09:21:18;;;;;;;;;;;;;;;20.43;72.09;100877.84;5016311;28;1902;-54
2021/09/27 09:23:43;;;;;;;;;;;;;;;20.45;71.90;100865.84;5016270;28;772;-54
2021/09/27 09:26:08;;;;;;;;;;;;;;;20.48;71.53;100874.66;5016481;28;820;-54
2021/09/27 09:28:34;;;;;;;;;;;;;;;20.49;71.44;100874.50;5022691;28;1521;-53
2021/09/27 09:31:04;;;;;;;;;;;;;;;20.50;71.47;100888.88;5034787;28;2692;-53
2021/09/27 09:33:30;;;;;;;;;;;;;;;20.50;71.63;100883.47;5036076;28;768;-50
2021/09/27 09:35:55;;;;;;;;;;;;;;;20.51;71.99;100874.34;5035889;28;867;-53
2021/09/27 09:38:20;;;;;;;;;;;;;;;20.51;71.60;100874.34;5035768;28;994;-52
2021/09/27 09:40:45;;;;;;;;;;;;;;;20.51;71.83;100875.19;5035840;28;1961;-51
2021/09/27 09:43:10;;;;;;;;;;;;;;;20.53;71.92;100875.03;5035765;28;1196;-53
2021/09/27 09:45:35;;;;;;;;;;;;;;;20.51;71.56;100872.47;5034953;28;2112;-54
2021/09/27 09:48:00;;;;;;;;;;;;;;;20.53;71.51;100866.91;5036352;28;1060;-50
2021/09/27 09:50:26;;;;;;;;;;;;;;;20.54;71.50;100857.75;5035409;28;910;-52
2021/09/27 09:52:51;;;;;;;;;;;;;;;20.52;71.28;100848.97;5035370;28;994;-50
2021/09/27 09:55:16;;;;;;;;;;;;;;;20.53;71.48;100840.66;5035409;28;998;-51
2021/09/27 09:57:41;;;;;;;;;;;;;;;20.54;71.62;100849.66;5035291;28;820;-53
2021/09/27 10:00:06;;;;;;;;;;;;;;;20.55;71.37;100851.34;5016117;28;2018;-54
2021/09/27 10:02:31;;;;;;;;;;;;;;;20.53;71.76;100851.50;5015653;28;1575;-54
2021/09/27 10:04:56;;;;;;;;;;;;;;;20.53;71.42;100862.34;5015622;28;871;-51
2021/09/27 10:07:21;;;;;;;;;;;;;;;20.54;71.73;100850.50;5015545;28;1258;-55
2021/09/27 10:09:46;;;;;;;;;;;;;;;20.55;71.33;100848.63;5015276;28;1061;-52
2021/09/27 10:12:11;;;;;;;;;;;;;;;20.54;71.51;100838.81;5015433;28;878;-54
2021/09/27 10:14:36;;;;;;;;;;;;;;;20.54;71.16;100846.94;5015602;28;1033;-54
2021/09/27 10:17:01;;;;;;;;;;;;;;;20.54;71.23;100839.66;5015457;28;1006;-53
2021/09/27 10:19:27;;;;;;;;;;;;;;;20.54;71.58;100841.53;5015382;28;820;-53
2021/09/27 10:21:52;;;;;;;;;;;;;;;20.54;71.83;100836.97;5015175;28;1923;-55
2021/09/27 10:24:17;;;;;;;;;;;;;;;20.54;71.26;100831.53;5015221;28;1057;-55
2021/09/27 10:26:42;;;;;;;;;;;;;;;20.55;71.32;100835.09;5017601;28;1734;-53
2021/09/27 10:29:07;;;;;;;;;;;;;;;20.56;71.38;100834.94;5032484;28;1734;-51
2021/09/27 10:31:32;;;;;;;;;;;;;;;20.57;70.96;100835.78;5034793;28;1911;-54
2021/09/27 10:33:57;;;;;;;;;;;;;;;20.58;71.19;100822.09;5034853;28;1813;-54
2021/09/27 10:36:23;;;;;;;;;;;;;;;20.59;71.21;100817.53;5035232;28;848;-52
2021/09/27 10:38:48;;;;;;;;;;;;;;;20.59;71.11;100823.78;5034808;28;1792;-53
2021/09/27 10:41:13;;;;;;;;;;;;;;;20.59;71.38;100833.75;5034866;28;1965;-54
2021/09/27 10:43:38;;;;;;;;;;;;;;;20.61;71.15;100839.84;5034646;28;1919;-53
2021/09/27 10:46:03;;;;;;;;;;;;;;;20.62;70.95;100834.25;5034681;28;1635;-52
2021/09/27 10:48:28;;;;;;;;;;;;;;;20.61;70.85;100827.13;5034448;28;1855;-53
2021/09/27 10:50:53;;;;;;;;;;;;;;;20.63;71.21;100826.97;5034403;28;1515;-54
2021/09/27 10:53:19;;;;;;;;;;;;;;;20.64;70.51;100828.69;5034869;28;1842;-55
2021/09/27 10:55:44;;;;;;;;;;;;;;;20.64;70.70;100820.56;5035001;28;799;-54
2021/09/27 10:58:09;;;;;;;;;;;;;;;20.65;70.72;100822.25;5022068;28;1608;-53
2021/09/27 11:00:34;;;;;;;;;;;;;;;20.66;70.82;100823.94;5034408;28;1894;-54
2021/09/27 11:02:59;;;;;;;;;;;;;;;20.64;70.65;100818.69;5034556;28;1649;-52
2021/09/27 11:05:24;;;;;;;;;;;;;;;20.66;70.81;100813.97;5034364;28;1857;-54
2021/09/27 11:07:50;;;;;;;;;;;;;;;20.68;70.75;100820.06;5034709;28;886;-53
2021/09/27 11:10:15;;;;;;;;;;;;;;;20.68;70.97;100808.38;5034694;28;1778;-54
2021/09/27 11:12:41;;;;;;;;;;;;;;;20.74;70.47;100795.03;5033285;28;1554;-53
2021/09/27 11:15:06;;;;;;;;;;;;;;;20.73;70.92;100797.91;5034851;28;1736;-55
2021/09/27 11:17:32;;;;;;;;;;;;;;;20.72;70.63;100796.22;5034900;28;1883;-54
2021/09/27 11:19:57;;;;;;;;;;;;;;;20.69;70.73;100793.84;5034789;28;1938;-54
2021/09/27 11:22:22;;;;;;;;;;;;;;;20.69;71.06;100783.00;5038793;28;922;-51
2021/09/27 11:24:47;;;;;;;;;;;;;;;20.71;70.59;100789.09;5038326;28;2012;-53
2021/09/27 11:27:12;;;;;;;;;;;;;;;20.73;71.13;100792.50;5033622;28;1832;-49
2021/09/27 11:29:37;;;;;;;;;;;;;;;20.75;70.93;100787.75;5031711;28;1812;-52
2021/09/27 11:32:02;;;;;;;;;;;;;;;20.77;70.33;100788.44;5038621;28;842;-52
2021/09/27 11:34:27;;;;;;;;;;;;;;;20.79;70.24;100797.22;5038585;28;986;-52
2021/09/27 11:36:52;;;;;;;;;;;;;;;20.82;70.43;100780.66;5039051;28;1032;-52
2021/09/27 11:39:17;;;;;;;;;;;;;;;20.83;71.16;100787.75;5038150;28;1860;-52
2021/09/27 11:41:42;;;;;;;;;;;;;;;20.85;70.87;100795.72;5038559;28;1894;-50
2021/09/27 11:44:07;;;;;;;;;;;;;;;20.88;71.76;100789.97;5038067;28;1947;-52
2021/09/27 11:46:34;;;;;;;;;;;;;;;20.96;71.66;100784.56;5038522;28;1804;-51
2021/09/27 11:49:02;;;;;;;;;;;;;;;21.05;70.64;100787.09;5038321;28;846;-52
2021/09/27 11:54:30;;;;;;;;;;;;;;;21.10;70.36;100790.16;5072225;28;1883;-62
2021/09/27 11:56:55;;;;;;;;;;;;;;;20.86;70.80;100787.44;5071421;28;1864;-62
2021/09/27 11:59:21;;;;;;;;;;;;;;;20.81;70.80;100789.78;5071768;28;1781;-61
2021/09/27 12:01:46;;;;;;;;;;;;;;;20.71;70.92;100789.09;5072170;28;847;-62
2021/09/27 12:04:11;;;;;;;;;;;;;;;20.65;71.15;100782.47;5072154;28;1008;-61
2021/09/27 12:06:36;;;;;;;;;;;;;;;20.60;71.23;100784.81;5072138;28;1709;-62
2021/09/27 12:09:01;;;;;;;;;;;;;;;20.59;71.02;100774.19;5072583;28;1567;-62
2021/09/27 12:11:26;;;;;;;;;;;;;;;20.64;70.28;100761.81;5071752;28;787;-62
2021/09/27 12:13:52;;;;;;;;;;;;;;;20.64;69.76;100764.53;5071825;28;1910;-62
2021/09/27 12:16:17;;;;;;;;;;;;;;;20.70;69.49;100771.16;5071624;28;752;-62
2021/09/27 12:18:43;;;;;;;;;;;;;;;20.69;69.63;100774.88;5071573;28;914;-61
2021/09/27 12:21:08;;;;;;;;;;;;;;;20.61;69.67;100777.56;5071428;28;847;-61
2021/09/27 12:23:33;;;;;;;;;;;;;;;20.60;69.49;100774.00;5071590;28;1009;-62
2021/09/27 12:25:58;;;;;;;;;;;;;;;20.62;69.82;100784.66;5071770;28;913;-62
2021/09/27 12:28:23;;;;;;;;;;;;;;;20.58;69.28;100767.09;5071176;28;1569;-61
2021/09/27 12:30:49;;;;;;;;;;;;;;;20.53;69.02;100774.84;5071547;28;997;-62
2021/09/27 12:33:14;;;;;;;;;;;;;;;20.52;69.10;100771.28;5071232;28;2009;-62
2021/09/27 12:35:39;;;;;;;;;;;;;;;20.49;69.49;100778.88;5071108;28;819;-63
2021/09/27 12:38:04;;;;;;;;;;;;;;;20.47;69.21;100781.75;5071486;28;814;-61
2021/09/27 12:40:29;;;;;;;;;;;;;;;20.47;69.65;100802.56;5071343;28;1068;-61
2021/09/27 12:42:54;;;;;;;;;;;;;;;20.40;69.54;100783.44;5071185;28;1160;-62